Terminal Aerodrome Forecast
Issued by NWS

Home | Current Version | Previous Version | Text Only | Print | Product List | Glossary On
Versions: 1 2 3 4 5 6 7 8 9 10 11 12 13 14 15 16 17 18 19 20 21 22 23 24 25 26
000
FTUS41 KBOX 291120
TAFBED
TAF
KBED 291120Z 2912/3012 34004KT P6SM SKC
     FM291700 05006KT P6SM SCT060
     FM292300 11004KT P6SM FEW060
     FM300600 00000KT P6SM SCT250=

USA.gov is the U.S. government's official web portal to all federal, state and local government web resources and services.